createdAt,value
2024-02-20T00:00:09.371Z,7.50
2024-02-20T00:02:43.500Z,7.50
2024-02-20T00:05:11.523Z,7.50
2024-02-20T00:07:39.142Z,7.40
2024-02-20T00:10:12.141Z,7.50
2024-02-20T00:12:39.624Z,7.60
2024-02-20T00:15:08.320Z,7.60
2024-02-20T00:17:36.159Z,7.50
2024-02-20T00:20:07.076Z,7.50
2024-02-20T00:22:34.902Z,7.50
2024-02-20T00:25:02.193Z,7.50
2024-02-20T00:27:31.314Z,7.60
2024-02-20T00:29:58.571Z,7.50
2024-02-20T00:32:25.543Z,7.60
2024-02-20T00:34:52.653Z,7.60
2024-02-20T00:37:19.729Z,7.70
2024-02-20T00:39:46.681Z,7.70
2024-02-20T00:42:13.610Z,7.70
2024-02-20T00:44:41.166Z,7.80
2024-02-20T00:47:11.239Z,7.90
2024-02-20T00:49:41.937Z,7.80
2024-02-20T00:52:09.250Z,7.90
2024-02-20T00:54:42.480Z,7.90
2024-02-20T00:57:11.401Z,7.70
2024-02-20T00:59:39.185Z,7.70
2024-02-20T01:02:11.980Z,7.70
2024-02-20T01:04:41.429Z,7.60
2024-02-20T01:07:09.054Z,7.60
2024-02-20T01:09:36.334Z,7.60
2024-02-20T01:12:03.753Z,7.60
2024-02-20T01:14:31.858Z,7.60
2024-02-20T01:16:58.970Z,7.70
2024-02-20T01:19:26.533Z,7.80
2024-02-20T01:21:53.692Z,7.80
2024-02-20T01:24:20.713Z,7.80
2024-02-20T01:26:47.619Z,7.80
2024-02-20T01:29:14.688Z,7.70
2024-02-20T01:31:41.649Z,7.70
2024-02-20T01:34:09.171Z,7.80
2024-02-20T01:36:36.158Z,7.80
2024-02-20T01:39:03.074Z,7.70
2024-02-20T01:41:30.085Z,7.70
2024-02-20T01:43:56.967Z,7.70
2024-02-20T01:46:24.256Z,7.70
2024-02-20T01:48:52.210Z,7.70
2024-02-20T01:51:23.981Z,7.70
2024-02-20T01:53:52.555Z,7.60
2024-02-20T01:56:19.780Z,7.60
2024-02-20T01:58:49.052Z,7.60
2024-02-20T02:01:16.525Z,7.50
2024-02-20T02:03:43.606Z,7.50
2024-02-20T02:06:10.704Z,7.50
2024-02-20T02:08:37.694Z,7.50
2024-02-20T02:11:04.632Z,7.60
2024-02-20T02:13:31.906Z,7.60
2024-02-20T02:15:58.896Z,7.60
2024-02-20T02:18:26.036Z,7.60
2024-02-20T02:20:53.257Z,7.60
2024-02-20T02:23:20.379Z,7.50
2024-02-20T02:25:47.257Z,7.60
2024-02-20T02:28:14.181Z,7.60
2024-02-20T02:30:41.185Z,7.60
2024-02-20T02:33:08.807Z,7.60
2024-02-20T02:35:35.915Z,7.60
2024-02-20T02:38:03.531Z,7.50
2024-02-20T02:40:30.948Z,7.60
2024-02-20T02:42:58.165Z,7.60
2024-02-20T02:45:25.557Z,7.70
2024-02-20T02:47:53.643Z,7.70
2024-02-20T02:50:21.018Z,7.60
2024-02-20T02:52:48.193Z,7.60
2024-02-20T02:55:15.302Z,7.70
2024-02-20T02:57:42.340Z,7.60
2024-02-20T03:00:13.012Z,7.70
2024-02-20T03:02:40.191Z,7.60
2024-02-20T03:05:08.675Z,7.70
2024-02-20T03:07:35.634Z,7.70
2024-02-20T03:10:03.314Z,7.80
2024-02-20T03:12:32.801Z,7.80
2024-02-20T03:15:01.078Z,7.70
2024-02-20T03:17:28.209Z,7.70
2024-02-20T03:19:55.237Z,7.80
2024-02-20T03:22:22.447Z,7.80
2024-02-20T03:24:49.373Z,7.80
2024-02-20T03:27:17.175Z,7.80
2024-02-20T03:29:44.188Z,7.80
2024-02-20T03:32:11.414Z,7.80
2024-02-20T03:34:38.564Z,7.80
2024-02-20T03:37:05.732Z,7.80
2024-02-20T03:39:32.816Z,7.90
2024-02-20T03:42:00.073Z,7.90
2024-02-20T03:44:27.101Z,7.90
2024-02-20T03:46:54.029Z,7.90
2024-02-20T03:49:21.314Z,7.90
2024-02-20T03:51:48.428Z,7.90
2024-02-20T03:54:15.406Z,7.90
2024-02-20T03:56:42.663Z,7.90
2024-02-20T03:59:09.864Z,7.90
2024-02-20T04:01:36.996Z,7.90
2024-02-20T04:04:04.564Z,7.90
2024-02-20T04:06:32.364Z,7.90
2024-02-20T04:09:05.268Z,7.90
2024-02-20T04:11:32.708Z,7.90
2024-02-20T04:14:00.086Z,7.90
2024-02-20T04:16:28.199Z,7.80
2024-02-20T04:18:55.359Z,7.70
2024-02-20T04:21:22.464Z,7.70
2024-02-20T04:23:50.180Z,7.70
2024-02-20T04:26:17.224Z,7.80
2024-02-20T04:28:44.235Z,7.70
2024-02-20T04:31:11.254Z,7.70
2024-02-20T04:33:38.983Z,7.70
2024-02-20T04:36:06.384Z,7.70
2024-02-20T04:38:33.300Z,7.70
2024-02-20T04:41:00.773Z,7.70
2024-02-20T04:43:27.897Z,7.60
2024-02-20T04:45:55.097Z,7.60
2024-02-20T04:48:22.226Z,7.60
2024-02-20T04:50:49.403Z,7.60
2024-02-20T04:53:16.367Z,7.60
2024-02-20T04:55:43.403Z,7.70
2024-02-20T04:58:10.868Z,7.70
2024-02-20T05:00:38.268Z,7.70
2024-02-20T05:03:06.215Z,7.70
2024-02-20T05:05:33.168Z,7.70
2024-02-20T05:08:00.192Z,7.70
2024-02-20T05:10:27.300Z,7.70
2024-02-20T05:12:54.414Z,7.70
2024-02-20T05:15:21.369Z,7.70
2024-02-20T05:17:48.465Z,7.60
2024-02-20T05:20:15.536Z,7.60
2024-02-20T05:22:42.732Z,7.60
2024-02-20T05:25:10.036Z,7.60
2024-02-20T05:27:37.357Z,7.60
2024-02-20T05:30:05.735Z,7.70
2024-02-20T05:32:32.830Z,7.70
2024-02-20T05:35:00.286Z,7.60
2024-02-20T05:37:27.309Z,7.60
2024-02-20T05:39:54.418Z,7.70
2024-02-20T05:42:21.407Z,7.60
2024-02-20T05:44:48.294Z,7.60
2024-02-20T05:47:15.224Z,7.70
2024-02-20T05:49:42.962Z,7.70
2024-02-20T05:52:11.829Z,7.80
2024-02-20T05:54:39.490Z,7.80
2024-02-20T05:57:06.820Z,7.80
2024-02-20T05:59:33.758Z,7.80
2024-02-20T06:02:00.901Z,7.80
2024-02-20T06:04:28.091Z,7.90
2024-02-20T06:06:55.306Z,7.80
2024-02-20T06:09:22.244Z,7.80
2024-02-20T06:11:49.335Z,7.80
2024-02-20T06:14:17.290Z,7.80
2024-02-20T06:16:44.393Z,7.80
2024-02-20T06:19:11.579Z,7.80
2024-02-20T06:21:39.623Z,7.80
2024-02-20T06:24:06.646Z,7.80
2024-02-20T06:26:35.955Z,7.80
2024-02-20T06:29:03.397Z,7.80
2024-02-20T06:31:30.420Z,7.90
2024-02-20T06:33:57.697Z,7.90
2024-02-20T06:36:24.786Z,7.90
2024-02-20T06:38:52.255Z,7.80
2024-02-20T06:41:19.261Z,7.80
2024-02-20T06:43:46.215Z,7.80
2024-02-20T06:46:13.314Z,7.80
2024-02-20T06:48:40.401Z,7.80
2024-02-20T06:51:07.373Z,7.80
2024-02-20T06:53:34.359Z,7.90
2024-02-20T06:56:01.806Z,7.90
2024-02-20T06:58:29.305Z,7.90
2024-02-20T07:00:56.622Z,7.90
2024-02-20T07:03:23.586Z,7.90
2024-02-20T07:05:50.680Z,7.90
2024-02-20T07:08:19.060Z,7.90
2024-02-20T07:10:46.368Z,7.90
2024-02-20T07:13:13.688Z,7.90
2024-02-20T07:15:40.952Z,8.00
2024-02-20T07:18:09.048Z,8.00
2024-02-20T07:20:37.910Z,8.00
2024-02-20T07:23:05.370Z,8.00
2024-02-20T07:25:32.823Z,8.00
2024-02-20T07:27:59.793Z,8.00
2024-02-20T07:30:31.847Z,7.90
2024-02-20T07:32:59.720Z,7.90
2024-02-20T07:35:27.154Z,8.00
2024-02-20T07:37:54.417Z,8.00
2024-02-20T07:40:21.518Z,8.10
2024-02-20T07:42:49.029Z,8.10
2024-02-20T07:45:16.063Z,8.10
2024-02-20T07:47:43.068Z,8.10
2024-02-20T07:50:10.576Z,8.20
2024-02-20T07:52:37.742Z,8.20
2024-02-20T07:55:05.229Z,8.30
2024-02-20T07:57:35.456Z,8.30
2024-02-20T08:00:06.650Z,8.30
2024-02-20T08:02:39.448Z,8.30
2024-02-20T08:05:07.192Z,8.40
2024-02-20T08:07:34.781Z,8.30
2024-02-20T08:10:02.344Z,8.30
2024-02-20T08:12:29.287Z,8.30
2024-02-20T08:14:56.469Z,8.30
2024-02-20T08:17:23.537Z,8.30
2024-02-20T08:19:50.984Z,8.30
2024-02-20T08:22:18.138Z,8.30
2024-02-20T08:24:45.984Z,8.30
2024-02-20T08:27:13.233Z,8.30
2024-02-20T08:29:40.232Z,8.30
2024-02-20T08:32:07.143Z,8.30
2024-02-20T08:34:34.258Z,8.40
2024-02-20T08:37:01.211Z,8.40
2024-02-20T08:39:28.297Z,8.40
2024-02-20T08:41:55.289Z,8.40
2024-02-20T08:44:24.965Z,8.40
2024-02-20T08:46:51.869Z,8.40
2024-02-20T08:49:19.012Z,8.40
2024-02-20T08:51:46.053Z,8.50
2024-02-20T08:54:13.149Z,8.40
2024-02-20T08:56:39.975Z,8.40
2024-02-20T08:59:06.949Z,8.50
2024-02-20T09:01:34.036Z,8.50
2024-02-20T09:04:01.731Z,8.50
2024-02-20T09:06:28.906Z,8.50
2024-02-20T09:08:56.339Z,8.50
2024-02-20T09:11:23.434Z,8.60
2024-02-20T09:13:50.575Z,8.60
2024-02-20T09:16:17.583Z,8.60
2024-02-20T09:18:44.601Z,8.70
2024-02-20T09:21:16.158Z,8.70
2024-02-20T09:23:44.704Z,8.80
2024-02-20T09:26:13.228Z,8.80
2024-02-20T09:28:40.116Z,8.80
2024-02-20T09:31:07.380Z,8.80
2024-02-20T09:33:34.610Z,8.90
2024-02-20T09:36:01.768Z,8.90
2024-02-20T09:38:28.686Z,8.90
2024-02-20T09:40:56.160Z,8.90
2024-02-20T09:43:23.424Z,8.80
2024-02-20T09:45:51.896Z,8.90
2024-02-20T09:48:20.419Z,8.90
2024-02-20T09:50:49.337Z,8.90
2024-02-20T09:53:20.549Z,8.90
2024-02-20T09:55:52.982Z,8.90
2024-02-20T09:58:20.164Z,9.00
2024-02-20T10:00:47.336Z,9.00
2024-02-20T10:03:15.327Z,9.00
2024-02-20T10:05:48.584Z,9.00
2024-02-20T10:08:15.850Z,9.00
2024-02-20T10:10:47.985Z,9.00
2024-02-20T10:13:15.569Z,8.80
2024-02-20T10:15:42.483Z,8.70
2024-02-20T10:18:09.562Z,8.60
2024-02-20T10:20:37.109Z,8.50
2024-02-20T10:23:09.787Z,8.50
2024-02-20T10:25:37.926Z,8.50
2024-02-20T10:28:08.688Z,8.50
2024-02-20T10:30:36.285Z,8.60
2024-02-20T10:33:03.786Z,8.70
2024-02-20T10:35:31.063Z,8.80
2024-02-20T10:38:02.839Z,8.80
2024-02-20T10:40:30.899Z,8.80
2024-02-20T10:42:58.495Z,8.90
2024-02-20T10:45:26.696Z,8.80
2024-02-20T10:47:56.923Z,8.90
2024-02-20T10:50:24.734Z,8.90
2024-02-20T10:52:56.247Z,8.90
2024-02-20T10:55:31.890Z,8.90
2024-02-20T10:58:04.546Z,8.90
2024-02-20T11:00:35.432Z,8.90
2024-02-20T11:03:06.188Z,8.90
2024-02-20T11:05:33.968Z,9.00
2024-02-20T11:08:12.326Z,9.00
2024-02-20T11:10:41.677Z,9.00
2024-02-20T11:13:21.636Z,9.00
2024-02-20T11:15:50.286Z,9.00
2024-02-20T11:18:19.717Z,9.00
2024-02-20T11:20:47.900Z,9.00
2024-02-20T11:23:14.859Z,8.90
2024-02-20T11:25:45.135Z,8.90
2024-02-20T11:28:16.626Z,8.90
2024-02-20T11:30:47.385Z,8.80
2024-02-20T11:33:17.816Z,8.80
2024-02-20T11:35:47.326Z,8.70
2024-02-20T11:38:18.090Z,8.60
2024-02-20T11:40:45.424Z,8.50
2024-02-20T11:43:12.645Z,8.30
2024-02-20T11:45:39.604Z,8.30
2024-02-20T11:48:08.894Z,8.30
2024-02-20T11:50:38.434Z,8.30
2024-02-20T11:53:10.705Z,8.30
2024-02-20T11:55:42.214Z,8.20
2024-02-20T11:58:09.691Z,8.30
2024-02-20T12:00:39.329Z,8.30
2024-02-20T12:03:09.130Z,8.40
2024-02-20T12:05:41.508Z,8.50
2024-02-20T12:08:15.692Z,8.50
2024-02-20T12:10:43.723Z,8.50
2024-02-20T12:13:21.896Z,8.50
2024-02-20T12:15:52.623Z,8.60
2024-02-20T12:18:27.207Z,8.70
2024-02-20T12:21:04.552Z,8.80
2024-02-20T12:23:31.640Z,8.80
2024-02-20T12:26:14.139Z,8.60
2024-02-20T12:28:41.443Z,8.50
2024-02-20T12:31:09.705Z,8.40
2024-02-20T12:33:37.534Z,8.30
2024-02-20T12:36:09.404Z,8.20
2024-02-20T12:38:36.395Z,8.30
2024-02-20T12:41:03.396Z,8.40
2024-02-20T12:43:30.398Z,8.50
2024-02-20T12:45:57.475Z,8.50
2024-02-20T12:48:24.469Z,8.60
2024-02-20T12:50:52.019Z,8.60
2024-02-20T12:53:18.936Z,8.60
2024-02-20T12:55:45.943Z,8.70
2024-02-20T12:58:13.916Z,8.80
2024-02-20T13:00:40.877Z,9.00
2024-02-20T13:03:09.232Z,9.10
2024-02-20T13:08:08.425Z,9.40
2024-02-20T13:10:35.847Z,9.40
2024-02-20T13:13:04.713Z,9.40
2024-02-20T13:15:31.777Z,9.40
2024-02-20T13:17:58.849Z,9.30
2024-02-20T13:20:33.795Z,9.30
2024-02-20T13:23:01.512Z,9.20
2024-02-20T13:25:28.740Z,9.20
2024-02-20T13:27:55.737Z,9.20
2024-02-20T13:30:23.145Z,9.20
2024-02-20T13:32:50.115Z,9.20
2024-02-20T13:35:19.478Z,9.20
2024-02-20T13:37:50.190Z,9.20
2024-02-20T13:40:19.052Z,9.10
2024-02-20T13:42:46.952Z,9.10
2024-02-20T13:45:15.454Z,9.10
2024-02-20T13:47:42.443Z,9.00
2024-02-20T13:50:10.307Z,9.00
2024-02-20T13:52:37.427Z,8.90
2024-02-20T13:55:05.027Z,8.90
2024-02-20T13:57:32.055Z,8.90
2024-02-20T13:59:59.128Z,8.80
2024-02-20T14:02:26.071Z,8.80
2024-02-20T14:04:53.093Z,8.80
2024-02-20T14:07:21.330Z,8.80
2024-02-20T14:09:48.435Z,8.80
2024-02-20T14:12:15.615Z,8.80
2024-02-20T14:14:42.517Z,8.70
2024-02-20T14:17:09.474Z,8.70
2024-02-20T14:19:36.847Z,8.60
2024-02-20T14:22:05.007Z,8.70
2024-02-20T14:24:32.166Z,8.80
2024-02-20T14:27:00.928Z,8.70
2024-02-20T14:29:28.094Z,8.70
2024-02-20T14:31:55.242Z,8.70
2024-02-20T14:34:22.360Z,8.70
2024-02-20T14:36:49.491Z,8.70
2024-02-20T14:39:18.989Z,8.70
2024-02-20T14:41:47.885Z,8.70
2024-02-20T14:44:18.020Z,8.70
2024-02-20T14:46:45.411Z,8.60
2024-02-20T14:49:15.564Z,8.60
2024-02-20T14:51:42.939Z,8.60
2024-02-20T14:54:09.953Z,8.50
2024-02-20T14:56:37.597Z,8.60
2024-02-20T14:59:09.742Z,8.60
2024-02-20T15:01:37.823Z,8.60
2024-02-20T15:04:05.706Z,8.70
2024-02-20T15:06:33.059Z,8.70
2024-02-20T15:09:01.361Z,8.70
2024-02-20T15:11:31.566Z,8.60
2024-02-20T15:13:59.203Z,8.50
2024-02-20T15:16:26.363Z,8.50
2024-02-20T15:18:53.525Z,8.40
2024-02-20T15:21:21.200Z,8.40
2024-02-20T15:23:48.583Z,8.30
2024-02-20T15:26:15.544Z,8.30
2024-02-20T15:28:43.188Z,8.20
2024-02-20T15:31:10.576Z,8.10
2024-02-20T15:33:37.801Z,8.00
2024-02-20T15:36:05.365Z,7.90
2024-02-20T15:38:32.489Z,7.80
2024-02-20T15:40:59.503Z,7.70
2024-02-20T15:43:26.965Z,7.70
2024-02-20T15:45:54.364Z,7.60
2024-02-20T15:48:21.446Z,7.50
2024-02-20T15:50:51.456Z,7.50
2024-02-20T15:53:21.282Z,7.40
2024-02-20T15:55:48.561Z,7.40
2024-02-20T15:58:17.114Z,7.50
2024-02-20T16:00:44.696Z,7.50
2024-02-20T16:03:12.854Z,7.50
2024-02-20T16:05:41.014Z,7.40
2024-02-20T16:08:09.990Z,7.40
2024-02-20T16:10:37.753Z,7.50
2024-02-20T16:13:06.363Z,7.60
2024-02-20T16:15:33.764Z,7.50
2024-02-20T16:18:01.361Z,7.40
2024-02-20T16:20:29.809Z,7.40
2024-02-20T16:22:58.756Z,7.40
2024-02-20T16:25:27.699Z,7.40
2024-02-20T16:27:55.308Z,7.40
2024-02-20T16:30:22.666Z,7.40
2024-02-20T16:32:49.723Z,7.40
2024-02-20T16:35:17.159Z,7.30
2024-02-20T16:37:44.447Z,7.30
2024-02-20T16:40:12.273Z,7.40
2024-02-20T16:42:39.280Z,7.40
2024-02-20T16:45:06.662Z,7.50
2024-02-20T16:47:35.625Z,7.40
2024-02-20T16:50:03.437Z,7.30
2024-02-20T16:52:30.645Z,7.10
2024-02-20T16:54:57.899Z,7.00
2024-02-20T16:57:25.931Z,7.00
2024-02-20T16:59:53.181Z,7.00
2024-02-20T17:02:20.515Z,7.00
2024-02-20T17:04:48.295Z,7.10
2024-02-20T17:07:20.057Z,7.00
2024-02-20T17:09:48.634Z,7.00
2024-02-20T17:12:16.078Z,7.00
2024-02-20T17:14:43.848Z,7.00
2024-02-20T17:17:10.828Z,7.00
2024-02-20T17:19:38.983Z,6.90
2024-02-20T17:22:06.790Z,6.90
2024-02-20T17:24:33.812Z,6.90
2024-02-20T17:27:00.768Z,7.00
2024-02-20T17:29:28.779Z,6.90
2024-02-20T17:31:56.213Z,6.90
2024-02-20T17:34:24.031Z,6.90
2024-02-20T17:36:53.335Z,6.70
2024-02-20T17:39:22.125Z,6.60
2024-02-20T17:41:49.270Z,6.60
2024-02-20T17:44:17.260Z,6.50
2024-02-20T17:46:44.221Z,6.60
2024-02-20T17:49:11.479Z,6.60
2024-02-20T17:51:38.568Z,6.60
2024-02-20T17:54:08.921Z,6.60
2024-02-20T17:56:36.395Z,6.60
2024-02-20T17:59:05.090Z,6.60
2024-02-20T18:01:33.371Z,6.60
2024-02-20T18:04:00.873Z,6.60
2024-02-20T18:06:29.129Z,6.60
2024-02-20T18:08:56.318Z,6.60
2024-02-20T18:11:23.378Z,6.70
2024-02-20T18:13:52.119Z,6.60
2024-02-20T18:16:19.528Z,6.70
2024-02-20T18:18:47.585Z,6.60
2024-02-20T18:21:14.742Z,6.60
2024-02-20T18:23:41.588Z,6.60
2024-02-20T18:26:09.238Z,6.60
2024-02-20T18:28:36.984Z,6.60
2024-02-20T18:31:04.378Z,6.60
2024-02-20T18:33:31.355Z,6.60
2024-02-20T18:35:58.456Z,6.60
2024-02-20T18:38:27.264Z,6.60
2024-02-20T18:40:55.643Z,6.70
2024-02-20T18:43:24.677Z,6.70
2024-02-20T18:45:53.954Z,6.60
2024-02-20T18:48:22.757Z,6.70
2024-02-20T18:50:50.102Z,6.60
2024-02-20T18:53:18.623Z,6.60
2024-02-20T18:55:45.875Z,6.60
2024-02-20T18:58:13.064Z,6.60
2024-02-20T19:00:40.548Z,6.60
2024-02-20T19:03:07.714Z,6.60
2024-02-20T19:05:34.705Z,6.60
2024-02-20T19:08:01.797Z,6.60
2024-02-20T19:10:28.862Z,6.50
2024-02-20T19:12:55.777Z,6.60
2024-02-20T19:15:23.182Z,6.60
2024-02-20T19:17:50.131Z,6.60
2024-02-20T19:20:20.170Z,6.70
2024-02-20T19:22:47.673Z,6.60
2024-02-20T19:25:15.011Z,6.60
2024-02-20T19:27:47.085Z,6.60
2024-02-20T19:30:16.038Z,6.60
2024-02-20T19:32:46.110Z,6.60
2024-02-20T19:35:13.196Z,6.70
2024-02-20T19:37:40.334Z,6.60
2024-02-20T19:40:08.013Z,6.60
2024-02-20T19:42:35.206Z,6.60
2024-02-20T19:45:03.861Z,6.60
2024-02-20T19:47:30.817Z,6.70
2024-02-20T19:49:57.792Z,6.70
2024-02-20T19:52:24.839Z,6.80
2024-02-20T19:54:51.908Z,6.70
2024-02-20T19:57:19.035Z,6.80
2024-02-20T19:59:49.748Z,6.80
2024-02-20T20:02:16.816Z,6.70
2024-02-20T20:04:43.992Z,6.70
2024-02-20T20:07:11.398Z,6.70
2024-02-20T20:09:42.549Z,6.70
2024-02-20T20:12:11.301Z,6.60
2024-02-20T20:14:38.232Z,6.60
2024-02-20T20:17:06.412Z,6.60
2024-02-20T20:19:36.578Z,6.70
2024-02-20T20:22:06.462Z,6.70
2024-02-20T20:24:33.486Z,6.70
2024-02-20T20:27:01.751Z,6.70
2024-02-20T20:29:29.864Z,6.70
2024-02-20T20:31:56.892Z,6.80
2024-02-20T20:34:23.978Z,6.80
2024-02-20T20:36:55.450Z,6.80
2024-02-20T20:39:23.102Z,6.80
2024-02-20T20:41:50.023Z,6.80
2024-02-20T20:44:16.928Z,6.80
2024-02-20T20:46:44.048Z,6.80
2024-02-20T20:49:12.161Z,6.80
2024-02-20T20:51:39.262Z,6.80
2024-02-20T20:54:06.242Z,6.70
2024-02-20T20:56:34.466Z,6.70
2024-02-20T20:59:02.199Z,6.70
2024-02-20T21:01:30.653Z,6.70
2024-02-20T21:04:00.139Z,6.80
2024-02-20T21:06:32.424Z,6.90
2024-02-20T21:09:00.851Z,6.90
2024-02-20T21:11:27.936Z,6.90
2024-02-20T21:13:55.022Z,6.90
2024-02-20T21:16:23.749Z,6.70
2024-02-20T21:18:51.066Z,6.80
2024-02-20T21:21:19.743Z,6.80
2024-02-20T21:23:49.495Z,6.80
2024-02-20T21:26:16.596Z,6.80
2024-02-20T21:28:43.633Z,6.80
2024-02-20T21:31:10.888Z,6.80
2024-02-20T21:33:38.266Z,6.70
2024-02-20T21:36:06.094Z,6.70
2024-02-20T21:38:34.037Z,6.80
2024-02-20T21:41:02.291Z,6.80
2024-02-20T21:43:29.698Z,6.80
2024-02-20T21:45:56.658Z,6.70
2024-02-20T21:48:24.245Z,6.70
2024-02-20T21:50:51.645Z,6.70
2024-02-20T21:53:18.704Z,6.60
2024-02-20T21:55:45.622Z,6.60
2024-02-20T21:58:12.635Z,6.60
2024-02-20T22:00:39.626Z,6.70
2024-02-20T22:03:07.373Z,6.70
2024-02-20T22:05:34.342Z,6.70
2024-02-20T22:08:02.248Z,6.80
2024-02-20T22:10:29.406Z,6.80
2024-02-20T22:12:57.474Z,6.80
2024-02-20T22:15:24.604Z,6.80
2024-02-20T22:17:51.684Z,6.80
2024-02-20T22:20:18.991Z,6.80
2024-02-20T22:22:45.991Z,6.70
2024-02-20T22:25:12.996Z,6.70
2024-02-20T22:27:39.946Z,6.70
2024-02-20T22:30:07.488Z,6.70
2024-02-20T22:32:34.496Z,6.70
2024-02-20T22:35:01.595Z,6.70
2024-02-20T22:37:28.683Z,6.70
2024-02-20T22:39:55.567Z,6.80
2024-02-20T22:42:23.458Z,6.70
2024-02-20T22:44:50.349Z,6.80
2024-02-20T22:47:17.282Z,6.70
2024-02-20T22:49:46.723Z,6.70
2024-02-20T22:52:14.137Z,6.70
2024-02-20T22:54:41.225Z,6.70
2024-02-20T22:57:08.204Z,6.80
2024-02-20T22:59:36.378Z,6.70
2024-02-20T23:02:03.978Z,6.70
2024-02-20T23:04:31.197Z,6.70
2024-02-20T23:06:58.430Z,6.70
2024-02-20T23:09:25.430Z,6.80
2024-02-20T23:11:52.691Z,6.70
2024-02-20T23:14:19.672Z,6.80
2024-02-20T23:16:48.690Z,6.70
2024-02-20T23:19:16.507Z,6.70
2024-02-20T23:21:43.759Z,6.70
2024-02-20T23:24:10.713Z,6.60
2024-02-20T23:26:37.606Z,6.60
2024-02-20T23:29:04.592Z,6.50
2024-02-20T23:31:31.662Z,6.60
2024-02-20T23:33:58.886Z,6.60
2024-02-20T23:36:25.854Z,6.60
2024-02-20T23:38:52.727Z,6.60
2024-02-20T23:41:19.731Z,6.60
2024-02-20T23:43:46.938Z,6.60
2024-02-20T23:46:14.401Z,6.70
2024-02-20T23:48:41.548Z,6.70
2024-02-20T23:51:08.636Z,6.80
2024-02-20T23:53:35.648Z,6.80
2024-02-20T23:56:03.128Z,6.80
2024-02-20T23:58:30.236Z,6.80
